Time;durP1;ratioP1;P1;durP2;ratioP2;P2;SDS_P1;SDS_P2;PMS_P1;PMS_P2;Temp;Humidity;BMP_temperature;BMP_pressure;BME280_temperature;BME280_humidity;BME280_pressure;Samples;Min_cycle;Max_cycle;Signal;HPM_P1;HPM_P2
2021/11/05 00:01:34;;;;;;;0.85;0.85;;;;;;;;;;5018939;28;20192;-47
2021/11/05 00:04:00;;;;;;;0.90;0.90;;;;;;;;;;5031817;28;20616;-47
2021/11/05 00:06:26;;;;;;;1.08;0.90;;;;;;;;;;5035437;28;20271;-47
2021/11/05 00:08:52;;;;;;;1.27;1.08;;;;;;;;;;5034652;28;20836;-47
2021/11/05 00:11:18;;;;;;;0.70;0.70;;;;;;;;;;5034814;28;20172;-47
2021/11/05 00:13:44;;;;;;;1.00;1.00;;;;;;;;;;5016901;28;20192;-47
2021/11/05 00:16:10;;;;;;;0.85;0.80;;;;;;;;;;5036047;28;20552;-47
2021/11/05 00:18:36;;;;;;;1.67;1.10;;;;;;;;;;5034235;28;20167;-47
2021/11/05 00:21:02;;;;;;;1.00;0.90;;;;;;;;;;5016255;28;20226;-47
2021/11/05 00:23:28;;;;;;;0.70;0.70;;;;;;;;;;5015878;28;20442;-47
2021/11/05 00:25:54;;;;;;;0.95;0.93;;;;;;;;;;5015311;28;20238;-47
2021/11/05 00:28:20;;;;;;;1.38;0.80;;;;;;;;;;5030095;28;20184;-47
2021/11/05 00:30:47;;;;;;;0.80;0.77;;;;;;;;;;5022147;28;20586;-47
2021/11/05 00:33:13;;;;;;;0.68;0.68;;;;;;;;;;5023216;28;20200;-47
2021/11/05 00:35:39;;;;;;;0.70;0.70;;;;;;;;;;5018703;28;20199;-47
2021/11/05 00:38:05;;;;;;;0.77;0.77;;;;;;;;;;5035001;28;20183;-47
2021/11/05 00:40:31;;;;;;;1.23;1.00;;;;;;;;;;5034970;28;20274;-47
2021/11/05 00:42:57;;;;;;;0.70;0.70;;;;;;;;;;5025720;28;20260;-47
2021/11/05 00:45:23;;;;;;;0.65;0.60;;;;;;;;;;5015840;28;20184;-48
2021/11/05 00:47:49;;;;;;;0.90;0.90;;;;;;;;;;5028016;28;20188;-47
2021/11/05 00:50:15;;;;;;;1.10;1.00;;;;;;;;;;5035426;28;20615;-47
2021/11/05 00:52:41;;;;;;;1.30;0.70;;;;;;;;;;5034888;28;20196;-47
2021/11/05 00:55:09;;;;;;;1.08;0.88;;;;;;;;;;5034701;28;20369;-47
2021/11/05 00:57:35;;;;;;;0.80;0.70;;;;;;;;;;5035254;28;20221;-47
2021/11/05 01:00:01;;;;;;;0.80;0.80;;;;;;;;;;5033456;28;20245;-47
2021/11/05 01:02:28;;;;;;;0.88;0.73;;;;;;;;;;5033754;28;20268;-47
2021/11/05 01:04:54;;;;;;;0.85;0.85;;;;;;;;;;5014417;28;20181;-47
2021/11/05 01:07:20;;;;;;;0.93;0.85;;;;;;;;;;5032283;28;20551;-47
2021/11/05 01:09:46;;;;;;;0.80;0.80;;;;;;;;;;5034965;28;20218;-47
2021/11/05 01:12:12;;;;;;;0.60;0.60;;;;;;;;;;5034925;28;20204;-47
2021/11/05 01:14:38;;;;;;;0.70;0.70;;;;;;;;;;5033622;28;20237;-47
2021/11/05 01:17:04;;;;;;;0.65;0.65;;;;;;;;;;5034356;28;20330;-47
2021/11/05 01:19:30;;;;;;;0.88;0.88;;;;;;;;;;5034347;28;20183;-47
2021/11/05 01:21:57;;;;;;;0.77;0.70;;;;;;;;;;5034233;28;20341;-47
2021/11/05 01:24:23;;;;;;;0.88;0.80;;;;;;;;;;5033910;28;20551;-48
2021/11/05 01:26:49;;;;;;;0.68;0.68;;;;;;;;;;5034751;28;20238;-47
2021/11/05 01:29:15;;;;;;;0.80;0.80;;;;;;;;;;5022974;28;20574;-47
2021/11/05 01:31:41;;;;;;;0.63;0.63;;;;;;;;;;5034086;28;20192;-47
2021/11/05 01:34:07;;;;;;;0.70;0.70;;;;;;;;;;5032290;28;20294;-47
2021/11/05 01:36:33;;;;;;;1.00;0.90;;;;;;;;;;5033992;28;20188;-47
2021/11/05 01:38:59;;;;;;;0.80;0.80;;;;;;;;;;5034164;28;20190;-48
2021/11/05 01:41:25;;;;;;;1.25;0.90;;;;;;;;;;5034338;28;20183;-47
2021/11/05 01:43:51;;;;;;;0.70;0.70;;;;;;;;;;5031824;28;20736;-47
2021/11/05 01:46:21;;;;;;;0.93;0.82;;;;;;;;;;5027413;28;20223;-47
2021/11/05 01:48:48;;;;;;;0.63;0.63;;;;;;;;;;5033121;28;20586;-47
2021/11/05 01:51:14;;;;;;;0.70;0.70;;;;;;;;;;5014156;28;20191;-47
2021/11/05 01:53:40;;;;;;;0.85;0.60;;;;;;;;;;5014269;28;20232;-47
2021/11/05 01:56:07;;;;;;;0.70;0.70;;;;;;;;;;5034254;28;20176;-47
2021/11/05 01:58:33;;;;;;;0.85;0.85;;;;;;;;;;5033961;28;20199;-47
2021/11/05 02:00:58;;;;;;;0.90;0.90;;;;;;;;;;5032085;28;20202;-47
2021/11/05 02:03:24;;;;;;;0.70;0.70;;;;;;;;;;5024336;28;20287;-47
2021/11/05 02:05:52;;;;;;;0.80;0.80;;;;;;;;;;5019525;28;20168;-47
2021/11/05 02:08:20;;;;;;;0.98;0.88;;;;;;;;;;5033397;28;20270;-47
2021/11/05 02:10:47;;;;;;;0.80;0.80;;;;;;;;;;5033555;28;20187;-46
2021/11/05 02:13:13;;;;;;;0.80;0.80;;;;;;;;;;5032951;28;20206;-46
2021/11/05 02:15:40;;;;;;;0.75;0.75;;;;;;;;;;5033392;28;20187;-48
2021/11/05 02:18:07;;;;;;;0.80;0.80;;;;;;;;;;5034548;28;20168;-47
2021/11/05 02:20:34;;;;;;;0.60;0.60;;;;;;;;;;5018835;28;20260;-47
2021/11/05 02:23:00;;;;;;;0.60;0.60;;;;;;;;;;5028810;28;20179;-47
2021/11/05 02:25:27;;;;;;;0.63;0.63;;;;;;;;;;5031057;28;20535;-47
2021/11/05 02:27:53;;;;;;;0.70;0.70;;;;;;;;;;5033317;28;20271;-47
2021/11/05 02:30:19;;;;;;;0.70;0.70;;;;;;;;;;5034361;28;20497;-47
2021/11/05 02:32:46;;;;;;;0.85;0.85;;;;;;;;;;5036696;28;20206;-47
2021/11/05 02:35:13;;;;;;;0.70;0.70;;;;;;;;;;5037148;28;20180;-47
2021/11/05 02:37:39;;;;;;;0.80;0.80;;;;;;;;;;5037086;28;20180;-47
2021/11/05 02:40:05;;;;;;;0.68;0.68;;;;;;;;;;5036646;28;20202;-47
2021/11/05 02:42:31;;;;;;;0.85;0.70;;;;;;;;;;5027512;28;20263;-47
2021/11/05 02:44:57;;;;;;;0.50;0.50;;;;;;;;;;5017643;28;20259;-47
2021/11/05 02:47:25;;;;;;;0.75;0.75;;;;;;;;;;5028633;28;20196;-47
2021/11/05 02:49:51;;;;;;;0.82;0.60;;;;;;;;;;5035240;28;20242;-47
2021/11/05 02:52:18;;;;;;;0.65;0.55;;;;;;;;;;5033720;28;20173;-47
2021/11/05 02:54:44;;;;;;;0.60;0.60;;;;;;;;;;5027676;28;20322;-47
2021/11/05 02:57:10;;;;;;;0.70;0.70;;;;;;;;;;5019152;28;20176;-47
2021/11/05 02:59:37;;;;;;;0.70;0.70;;;;;;;;;;5025404;28;20172;-47
2021/11/05 03:02:04;;;;;;;0.70;0.70;;;;;;;;;;5037223;28;20202;-47
2021/11/05 03:04:30;;;;;;;0.70;0.70;;;;;;;;;;5036351;28;20238;-47
2021/11/05 03:07:05;;;;;;;0.60;0.60;;;;;;;;;;5036813;28;20184;-47
2021/11/05 03:09:34;;;;;;;0.60;0.60;;;;;;;;;;5036728;28;20197;-47
2021/11/05 03:12:01;;;;;;;0.50;0.50;;;;;;;;;;5037124;28;20188;-47
2021/11/05 03:14:28;;;;;;;0.70;0.70;;;;;;;;;;5022502;28;20222;-47
2021/11/05 03:16:54;;;;;;;0.70;0.70;;;;;;;;;;5036633;28;20245;-47
2021/11/05 03:19:20;;;;;;;0.50;0.50;;;;;;;;;;5037594;28;20548;-47
2021/11/05 03:21:46;;;;;;;0.88;0.60;;;;;;;;;;5030611;28;20176;-47
2021/11/05 03:24:12;;;;;;;0.50;0.50;;;;;;;;;;5020572;28;20627;-47
2021/11/05 03:26:38;;;;;;;0.60;0.60;;;;;;;;;;5036281;28;20183;-47
2021/11/05 03:29:04;;;;;;;0.50;0.50;;;;;;;;;;5036153;28;20263;-47
2021/11/05 03:31:30;;;;;;;0.80;0.80;;;;;;;;;;5036857;28;20192;-47
2021/11/05 03:33:56;;;;;;;0.55;0.55;;;;;;;;;;5034495;28;20196;-47
2021/11/05 03:36:23;;;;;;;0.90;0.82;;;;;;;;;;5034009;28;20469;-47
2021/11/05 03:38:50;;;;;;;0.77;0.77;;;;;;;;;;5017347;28;20595;-47
2021/11/05 03:41:16;;;;;;;0.57;0.57;;;;;;;;;;5025625;28;20266;-47
2021/11/05 03:43:42;;;;;;;1.05;0.70;;;;;;;;;;5036050;28;20276;-47
2021/11/05 03:46:08;;;;;;;0.60;0.60;;;;;;;;;;5034126;28;20555;-47
2021/11/05 03:48:38;;;;;;;0.50;0.50;;;;;;;;;;5034245;28;20179;-47
2021/11/05 03:51:04;;;;;;;0.70;0.68;;;;;;;;;;5034232;28;20172;-47
2021/11/05 03:53:30;;;;;;;0.70;0.70;;;;;;;;;;5036178;28;20498;-47
2021/11/05 03:55:56;;;;;;;0.60;0.60;;;;;;;;;;5018681;28;20184;-47
2021/11/05 03:58:22;;;;;;;0.68;0.68;;;;;;;;;;5036066;28;20180;-47
2021/11/05 04:00:48;;;;;;;0.63;0.63;;;;;;;;;;5022983;28;20196;-47
2021/11/05 04:03:15;;;;;;;0.52;0.52;;;;;;;;;;5035670;28;20268;-47
2021/11/05 04:05:41;;;;;;;1.17;0.77;;;;;;;;;;5031826;28;20724;-47
2021/11/05 04:08:07;;;;;;;0.70;0.70;;;;;;;;;;5026427;28;20180;-47
2021/11/05 04:10:33;;;;;;;0.60;0.60;;;;;;;;;;5029608;28;20279;-47
2021/11/05 04:13:01;;;;;;;0.50;0.50;;;;;;;;;;5017720;28;20211;-47
2021/11/05 04:15:27;;;;;;;0.68;0.68;;;;;;;;;;5016867;28;20165;-47
2021/11/05 04:17:53;;;;;;;0.45;0.45;;;;;;;;;;5030313;28;20191;-47
2021/11/05 04:20:19;;;;;;;0.60;0.60;;;;;;;;;;5035117;28;20172;-47
2021/11/05 04:22:45;;;;;;;0.40;0.40;;;;;;;;;;5021104;28;20627;-47
2021/11/05 04:25:11;;;;;;;0.60;0.60;;;;;;;;;;5031746;28;20194;-47
2021/11/05 04:27:38;;;;;;;0.50;0.50;;;;;;;;;;5035471;28;20619;-47
2021/11/05 04:30:05;;;;;;;0.60;0.60;;;;;;;;;;5035600;28;20164;-47
2021/11/05 04:32:32;;;;;;;0.70;0.68;;;;;;;;;;5023782;28;20184;-47
2021/11/05 04:34:58;;;;;;;0.50;0.50;;;;;;;;;;5028158;28;20248;-47
2021/11/05 04:37:24;;;;;;;1.10;0.65;;;;;;;;;;5027406;28;20189;-48
2021/11/05 04:39:50;;;;;;;0.63;0.63;;;;;;;;;;5027277;28;20184;-48
2021/11/05 04:42:16;;;;;;;0.70;0.70;;;;;;;;;;5016540;28;20211;-48
2021/11/05 04:44:42;;;;;;;0.55;0.55;;;;;;;;;;5015540;28;20176;-48
2021/11/05 04:47:08;;;;;;;0.60;0.60;;;;;;;;;;5031151;28;20180;-48
2021/11/05 04:49:34;;;;;;;0.60;0.60;;;;;;;;;;5035108;28;20187;-48
2021/11/05 04:52:00;;;;;;;0.75;0.75;;;;;;;;;;5035385;28;20175;-48
2021/11/05 04:54:26;;;;;;;0.70;0.47;;;;;;;;;;5027671;28;20223;-47
2021/11/05 04:56:52;;;;;;;0.65;0.65;;;;;;;;;;5030221;28;20213;-47
2021/11/05 04:59:19;;;;;;;0.60;0.60;;;;;;;;;;5034455;28;20578;-47
2021/11/05 05:01:45;;;;;;;0.90;0.60;;;;;;;;;;5034951;28;20521;-47
2021/11/05 05:04:11;;;;;;;0.60;0.60;;;;;;;;;;5032629;28;20263;-47
2021/11/05 05:06:38;;;;;;;0.50;0.50;;;;;;;;;;5034239;28;20475;-47
2021/11/05 05:09:04;;;;;;;0.73;0.68;;;;;;;;;;5034159;28;20187;-47
2021/11/05 05:11:31;;;;;;;1.42;0.90;;;;;;;;;;5026627;28;20870;-47
2021/11/05 05:13:57;;;;;;;5.15;1.35;;;;;;;;;;5027552;28;20403;-47
2021/11/05 05:16:23;;;;;;;1.92;1.08;;;;;;;;;;5033784;28;20180;-47
2021/11/05 05:18:49;;;;;;;5.60;1.27;;;;;;;;;;5033116;28;20207;-47
2021/11/05 05:21:15;;;;;;;2.33;1.10;;;;;;;;;;5015692;28;20186;-47
2021/11/05 05:23:41;;;;;;;1.13;0.90;;;;;;;;;;5014155;28;20545;-47
2021/11/05 05:26:07;;;;;;;23.27;5.28;;;;;;;;;;5014356;28;20177;-47
2021/11/05 05:28:33;;;;;;;29.15;8.25;;;;;;;;;;5032131;28;20180;-47
2021/11/05 05:31:07;;;;;;;43.72;10.90;;;;;;;;;;5033686;28;20180;-48
2021/11/05 05:33:35;;;;;;;53.47;12.60;;;;;;;;;;5015638;28;20200;-47
2021/11/05 05:36:01;;;;;;;61.42;15.13;;;;;;;;;;5032066;28;20176;-47
2021/11/05 05:38:27;;;;;;;74.60;17.30;;;;;;;;;;5031419;28;20183;-47
2021/11/05 05:40:53;;;;;;;81.60;19.67;;;;;;;;;;5033677;28;20225;-47
2021/11/05 05:43:19;;;;;;;90.47;19.40;;;;;;;;;;5033641;28;20446;-47
2021/11/05 05:45:45;;;;;;;73.68;20.33;;;;;;;;;;5033811;28;20242;-47
2021/11/05 05:48:11;;;;;;;113.25;23.13;;;;;;;;;;5031605;28;20172;-48
2021/11/05 05:50:37;;;;;;;93.05;23.05;;;;;;;;;;5034626;28;20192;-47
2021/11/05 05:53:03;;;;;;;91.20;22.25;;;;;;;;;;5019836;28;20192;-47
2021/11/05 05:55:29;;;;;;;95.93;22.38;;;;;;;;;;5014368;28;20181;-47
2021/11/05 05:57:55;;;;;;;87.53;23.67;;;;;;;;;;5026726;28;20163;-47
2021/11/05 06:00:21;;;;;;;91.63;23.40;;;;;;;;;;5030092;28;20161;-47
2021/11/05 06:02:47;;;;;;;91.43;23.10;;;;;;;;;;5023082;28;20476;-47
2021/11/05 06:05:14;;;;;;;83.43;23.27;;;;;;;;;;5033581;28;20230;-47
2021/11/05 06:07:40;;;;;;;77.78;22.83;;;;;;;;;;5028303;28;20436;-47
2021/11/05 06:10:06;;;;;;;93.85;23.52;;;;;;;;;;5026465;28;20267;-47
2021/11/05 06:12:33;;;;;;;88.75;23.25;;;;;;;;;;5018702;28;20180;-47
2021/11/05 06:14:59;;;;;;;83.57;23.27;;;;;;;;;;5017993;28;20471;-47
2021/11/05 06:17:25;;;;;;;79.93;21.85;;;;;;;;;;5026229;28;20259;-47
2021/11/05 06:19:51;;;;;;;88.90;23.20;;;;;;;;;;5038016;28;20210;-47
2021/11/05 06:22:19;;;;;;;78.50;22.00;;;;;;;;;;5021419;28;20176;-47
2021/11/05 06:24:45;;;;;;;76.07;22.00;;;;;;;;;;5024667;28;20171;-47
2021/11/05 06:27:11;;;;;;;90.15;22.48;;;;;;;;;;5027512;28;20226;-47
2021/11/05 06:29:37;;;;;;;72.85;21.02;;;;;;;;;;5037970;28;20207;-47
2021/11/05 06:32:03;;;;;;;83.95;21.45;;;;;;;;;;5033833;28;20177;-47
2021/11/05 06:34:29;;;;;;;64.57;18.73;;;;;;;;;;5024230;28;20214;-47
2021/11/05 06:36:55;;;;;;;62.30;19.67;;;;;;;;;;5033051;28;20179;-47
2021/11/05 06:39:21;;;;;;;64.28;19.50;;;;;;;;;;5033749;28;20191;-47
2021/11/05 06:41:48;;;;;;;62.42;17.80;;;;;;;;;;5020770;28;20262;-47
2021/11/05 06:44:14;;;;;;;61.97;19.10;;;;;;;;;;5026165;28;20199;-47
2021/11/05 06:46:40;;;;;;;63.83;19.77;;;;;;;;;;5036373;28;20201;-48
2021/11/05 06:49:06;;;;;;;63.60;18.33;;;;;;;;;;5036164;28;20190;-47
2021/11/05 06:51:32;;;;;;;61.63;18.60;;;;;;;;;;5024462;28;20191;-47
2021/11/05 06:53:58;;;;;;;53.80;16.65;;;;;;;;;;5026363;28;20586;-48
2021/11/05 06:56:24;;;;;;;65.57;18.13;;;;;;;;;;5037037;28;20180;-47
2021/11/05 06:58:52;;;;;;;59.22;18.35;;;;;;;;;;5028919;28;20764;-48
2021/11/05 07:01:18;;;;;;;51.17;17.27;;;;;;;;;;5017697;28;20160;-47
2021/11/05 07:03:44;;;;;;;53.47;16.65;;;;;;;;;;5027629;28;20195;-47
2021/11/05 07:06:11;;;;;;;45.78;15.88;;;;;;;;;;5024685;28;20180;-47
2021/11/05 07:08:37;;;;;;;52.40;17.17;;;;;;;;;;5035548;28;20168;-47
2021/11/05 07:11:03;;;;;;;51.53;16.17;;;;;;;;;;5035091;28;20522;-47
2021/11/05 07:13:29;;;;;;;48.67;15.20;;;;;;;;;;5034831;28;20204;-47
2021/11/05 07:15:55;;;;;;;47.20;15.02;;;;;;;;;;5036663;28;20180;-47
2021/11/05 07:18:21;;;;;;;40.58;14.88;;;;;;;;;;5028892;28;20185;-48
2021/11/05 07:20:48;;;;;;;39.38;14.30;;;;;;;;;;5036714;28;20164;-47
2021/11/05 07:23:14;;;;;;;43.15;15.10;;;;;;;;;;5036907;28;20585;-47
2021/11/05 07:25:41;;;;;;;41.05;14.52;;;;;;;;;;5023834;28;20259;-47
2021/11/05 07:28:08;;;;;;;47.38;14.98;;;;;;;;;;5036391;28;20201;-47
2021/11/05 07:30:34;;;;;;;42.38;15.30;;;;;;;;;;5036709;28;20214;-47
2021/11/05 07:33:00;;;;;;;43.67;13.23;;;;;;;;;;5024704;28;20448;-47
2021/11/05 07:35:26;;;;;;;38.88;14.32;;;;;;;;;;5030195;28;20205;-47
2021/11/05 07:37:52;;;;;;;43.95;14.32;;;;;;;;;;5033110;28;20490;-47
2021/11/05 07:40:19;;;;;;;32.10;11.98;;;;;;;;;;5019319;28;20223;-48
2021/11/05 07:42:46;;;;;;;40.40;13.23;;;;;;;;;;5035315;28;20249;-47
2021/11/05 07:45:13;;;;;;;39.13;13.05;;;;;;;;;;5033359;28;20377;-47
2021/11/05 07:47:40;;;;;;;31.60;12.32;;;;;;;;;;5036488;28;20188;-47
2021/11/05 07:50:06;;;;;;;36.60;12.50;;;;;;;;;;5036433;28;20176;-47
2021/11/05 07:52:33;;;;;;;35.10;12.80;;;;;;;;;;5031118;28;20179;-48
2021/11/05 07:54:59;;;;;;;31.98;11.27;;;;;;;;;;5026612;28;20192;-48
2021/11/05 07:57:25;;;;;;;33.15;12.27;;;;;;;;;;5032655;28;20184;-47
2021/11/05 07:59:52;;;;;;;31.15;12.27;;;;;;;;;;5036355;28;20187;-47
2021/11/05 08:02:18;;;;;;;30.95;11.60;;;;;;;;;;5036041;28;20164;-48
2021/11/05 08:04:44;;;;;;;31.77;10.90;;;;;;;;;;5033611;28;20230;-48
2021/11/05 08:07:10;;;;;;;28.63;10.10;;;;;;;;;;5034289;28;20254;-47
2021/11/05 08:09:37;;;;;;;29.73;11.20;;;;;;;;;;5034939;28;20188;-47
2021/11/05 08:12:03;;;;;;;31.70;11.50;;;;;;;;;;5027584;28;20176;-47
2021/11/05 08:14:29;;;;;;;31.48;11.18;;;;;;;;;;5030147;28;20207;-47
2021/11/05 08:16:55;;;;;;;28.23;10.15;;;;;;;;;;5016484;28;20203;-47
2021/11/05 08:19:21;;;;;;;27.85;11.63;;;;;;;;;;5016520;28;20204;-47
2021/11/05 08:21:47;;;;;;;28.95;10.15;;;;;;;;;;5016342;28;20196;-47
2021/11/05 08:24:13;;;;;;;29.55;10.02;;;;;;;;;;5027484;28;20195;-47
2021/11/05 08:26:39;;;;;;;28.05;10.48;;;;;;;;;;5022645;28;20200;-47
2021/11/05 08:29:06;;;;;;;30.67;10.02;;;;;;;;;;5015258;28;20563;-47
2021/11/05 08:31:32;;;;;;;25.35;9.80;;;;;;;;;;5021376;28;20181;-47
2021/11/05 08:33:58;;;;;;;27.02;9.77;;;;;;;;;;5017445;28;20587;-47
2021/11/05 08:36:25;;;;;;;24.70;9.45;;;;;;;;;;5015705;28;20188;-48
2021/11/05 08:38:52;;;;;;;25.45;9.25;;;;;;;;;;5032423;28;20256;-48
2021/11/05 08:41:18;;;;;;;21.52;8.95;;;;;;;;;;5034826;28;20254;-47
2021/11/05 08:43:45;;;;;;;23.10;8.95;;;;;;;;;;5034846;28;20188;-47
2021/11/05 08:46:16;;;;;;;23.00;9.25;;;;;;;;;;5033223;28;20183;-48
2021/11/05 08:48:43;;;;;;;24.33;8.88;;;;;;;;;;5034682;28;20454;-48
2021/11/05 08:51:10;;;;;;;20.83;9.02;;;;;;;;;;5034744;28;20187;-47
2021/11/05 08:53:37;;;;;;;23.33;8.50;;;;;;;;;;5035055;28;20489;-47
2021/11/05 08:56:03;;;;;;;21.10;8.23;;;;;;;;;;5032474;28;20191;-47
2021/11/05 08:58:30;;;;;;;18.20;7.95;;;;;;;;;;5024733;28;20191;-48
2021/11/05 09:00:56;;;;;;;19.55;8.05;;;;;;;;;;5030039;28;20175;-47
2021/11/05 09:03:23;;;;;;;23.83;8.38;;;;;;;;;;5034662;28;20182;-48
2021/11/05 09:05:49;;;;;;;21.35;8.13;;;;;;;;;;5024685;28;20191;-47
2021/11/05 09:08:15;;;;;;;21.48;8.68;;;;;;;;;;5035294;28;20176;-47
2021/11/05 09:10:41;;;;;;;18.23;7.70;;;;;;;;;;5034392;28;20180;-47
2021/11/05 09:13:08;;;;;;;18.23;8.00;;;;;;;;;;5026051;28;20491;-47
2021/11/05 09:15:35;;;;;;;20.33;7.95;;;;;;;;;;5022477;28;20259;-47
2021/11/05 09:18:02;;;;;;;17.88;7.45;;;;;;;;;;5015522;28;20223;-47
2021/11/05 09:20:30;;;;;;;16.17;7.53;;;;;;;;;;5030103;28;20504;-47
2021/11/05 09:22:56;;;;;;;18.63;7.28;;;;;;;;;;5034121;28;20163;-48
2021/11/05 09:25:22;;;;;;;16.15;6.93;;;;;;;;;;5030637;28;20579;-48
2021/11/05 09:27:49;;;;;;;18.70;7.35;;;;;;;;;;5035332;28;20191;-47
2021/11/05 09:30:15;;;;;;;19.33;7.35;;;;;;;;;;5034633;28;20172;-47
2021/11/05 09:32:42;;;;;;;15.85;6.60;;;;;;;;;;5033325;28;20168;-47
2021/11/05 09:35:08;;;;;;;14.98;6.15;;;;;;;;;;5022110;28;20646;-47
2021/11/05 09:37:36;;;;;;;12.93;6.70;;;;;;;;;;5030820;28;20184;-47
2021/11/05 09:40:02;;;;;;;13.40;5.75;;;;;;;;;;5013797;28;20189;-47
2021/11/05 09:42:29;;;;;;;15.65;6.38;;;;;;;;;;5032514;28;20210;-47
2021/11/05 09:44:55;;;;;;;14.57;6.35;;;;;;;;;;5029725;28;20254;-48
2021/11/05 09:47:22;;;;;;;13.10;6.03;;;;;;;;;;5032800;28;20203;-48
2021/11/05 09:49:48;;;;;;;15.77;5.95;;;;;;;;;;5034703;28;20191;-48
2021/11/05 09:52:14;;;;;;;13.50;6.43;;;;;;;;;;5034834;28;20181;-48
2021/11/05 09:54:42;;;;;;;14.15;6.05;;;;;;;;;;5029691;28;20207;-48
2021/11/05 09:57:08;;;;;;;12.98;5.68;;;;;;;;;;5034565;28;20156;-47
2021/11/05 09:59:34;;;;;;;13.23;5.95;;;;;;;;;;5034867;28;20168;-47
2021/11/05 10:02:00;;;;;;;12.60;5.88;;;;;;;;;;5034770;28;21006;-47
2021/11/05 10:04:26;;;;;;;15.43;5.78;;;;;;;;;;5016699;28;20233;-47
2021/11/05 10:06:59;;;;;;;10.40;5.20;;;;;;;;;;5021387;28;20222;-47
2021/11/05 10:09:30;;;;;;;15.25;5.85;;;;;;;;;;5015095;28;20176;-47
2021/11/05 10:12:04;;;;;;;12.40;5.50;;;;;;;;;;5020827;28;20259;-47
2021/11/05 10:14:30;;;;;;;11.90;5.32;;;;;;;;;;5031302;28;20195;-47
2021/11/05 10:17:00;;;;;;;11.52;5.75;;;;;;;;;;5021695;28;20456;-47
2021/11/05 10:19:46;;;;;;;11.73;5.32;;;;;;;;;;5027902;28;20226;-47
2021/11/05 10:22:32;;;;;;;12.63;5.32;;;;;;;;;;5022993;28;20250;-47
2021/11/05 10:25:17;;;;;;;10.68;4.90;;;;;;;;;;5014438;28;20176;-47
2021/11/05 10:27:43;;;;;;;11.73;4.93;;;;;;;;;;5023494;28;20204;-48
2021/11/05 10:30:09;;;;;;;12.05;5.03;;;;;;;;;;5020368;28;20250;-47
2021/11/05 10:32:40;;;;;;;12.85;5.15;;;;;;;;;;5014847;28;20469;-47
2021/11/05 10:35:14;;;;;;;13.00;5.20;;;;;;;;;;5018364;28;20196;-47
2021/11/05 10:37:41;;;;;;;9.63;4.68;;;;;;;;;;5033026;28;20455;-47
2021/11/05 10:40:09;;;;;;;9.80;4.38;;;;;;;;;;5030057;28;20211;-47
2021/11/05 10:42:36;;;;;;;10.38;4.65;;;;;;;;;;5017605;28;20187;-47
2021/11/05 10:45:21;;;;;;;9.95;4.18;;;;;;;;;;5021492;28;20195;-47
2021/11/05 10:47:53;;;;;;;10.77;4.47;;;;;;;;;;5033372;28;20196;-47
2021/11/05 10:50:24;;;;;;;10.02;4.53;;;;;;;;;;5034193;28;20194;-47
2021/11/05 10:53:02;;;;;;;9.98;4.43;;;;;;;;;;5035150;28;20192;-48
2021/11/05 10:55:43;;;;;;;11.13;4.32;;;;;;;;;;5031731;28;20191;-48
2021/11/05 10:58:14;;;;;;;7.65;3.95;;;;;;;;;;5037600;28;20259;-47
2021/11/05 11:00:41;;;;;;;9.20;4.22;;;;;;;;;;5029445;28;20176;-47
2021/11/05 11:03:20;;;;;;;8.60;4.18;;;;;;;;;;5037046;28;20175;-48
2021/11/05 11:05:47;;;;;;;10.30;4.50;;;;;;;;;;5030126;28;20180;-48
2021/11/05 11:08:20;;;;;;;10.05;4.03;;;;;;;;;;5030054;28;20187;-49
2021/11/05 11:10:48;;;;;;;7.72;4.03;;;;;;;;;;5022634;28;20195;-48
2021/11/05 11:13:26;;;;;;;9.05;4.20;;;;;;;;;;5026671;28;20469;-47
2021/11/05 11:15:53;;;;;;;7.53;3.88;;;;;;;;;;5031444;28;20183;-48
2021/11/05 11:18:18;;;;;;;7.82;4.07;;;;;;;;;;5037287;28;20191;-47
2021/11/05 11:20:44;;;;;;;6.85;3.85;;;;;;;;;;5030528;28;20177;-48
2021/11/05 11:23:11;;;;;;;5.97;3.47;;;;;;;;;;5022382;28;20923;-47
2021/11/05 11:25:38;;;;;;;5.55;3.45;;;;;;;;;;5034386;28;20172;-47
2021/11/05 11:28:04;;;;;;;7.05;3.83;;;;;;;;;;5029700;28;20678;-48
2021/11/05 11:30:30;;;;;;;10.15;3.97;;;;;;;;;;5035090;28;20221;-48
2021/11/05 11:32:58;;;;;;;8.60;3.60;;;;;;;;;;5035495;28;20195;-47
2021/11/05 11:35:25;;;;;;;6.47;3.58;;;;;;;;;;5043066;28;20175;-47
2021/11/05 11:37:51;;;;;;;6.80;3.65;;;;;;;;;;5055724;28;20171;-47
2021/11/05 11:40:17;;;;;;;9.23;3.90;;;;;;;;;;5033535;28;20191;-47
2021/11/05 11:42:43;;;;;;;6.35;3.20;;;;;;;;;;5035239;28;20218;-48
2021/11/05 11:45:14;;;;;;;6.53;3.55;;;;;;;;;;5035049;28;20211;-48
2021/11/05 11:47:44;;;;;;;5.80;2.88;;;;;;;;;;5036526;28;20610;-48
2021/11/05 11:50:29;;;;;;;5.35;3.30;;;;;;;;;;5035668;28;20184;-48
2021/11/05 11:53:00;;;;;;;6.90;3.40;;;;;;;;;;5036037;28;20345;-48
2021/11/05 11:55:26;;;;;;;5.93;3.05;;;;;;;;;;5034454;28;20187;-48
2021/11/05 11:58:11;;;;;;;6.10;3.28;;;;;;;;;;5036559;28;20534;-47
2021/11/05 12:00:37;;;;;;;5.38;3.05;;;;;;;;;;5025215;28;20251;-47
2021/11/05 12:03:08;;;;;;;6.00;3.25;;;;;;;;;;5035126;28;20207;-47
2021/11/05 12:05:36;;;;;;;6.25;3.33;;;;;;;;;;5030892;28;20184;-47
2021/11/05 12:08:21;;;;;;;7.20;3.83;;;;;;;;;;5035972;28;20169;-47
2021/11/05 12:10:50;;;;;;;4.60;2.72;;;;;;;;;;5036233;28;20415;-48
2021/11/05 12:13:34;;;;;;;5.57;2.90;;;;;;;;;;5035408;28;20200;-47
2021/11/05 12:16:18;;;;;;;4.72;2.90;;;;;;;;;;5022295;28;20180;-47
2021/11/05 12:19:10;;;;;;;4.35;2.60;;;;;;;;;;5017100;28;20242;-49
2021/11/05 12:21:38;;;;;;;3.67;2.53;;;;;;;;;;5036123;28;20176;-47
2021/11/05 12:24:16;;;;;;;5.38;2.72;;;;;;;;;;5027934;28;20188;-49
2021/11/05 12:26:54;;;;;;;6.60;2.97;;;;;;;;;;5035031;28;20291;-48
2021/11/05 12:29:33;;;;;;;5.40;2.92;;;;;;;;;;5034749;28;20171;-48
2021/11/05 12:32:14;;;;;;;5.47;2.95;;;;;;;;;;5035480;28;20179;-47
2021/11/05 12:34:45;;;;;;;3.85;2.42;;;;;;;;;;5032272;28;20215;-48
2021/11/05 12:37:11;;;;;;;6.60;3.00;;;;;;;;;;5035772;28;20689;-48
2021/11/05 12:39:38;;;;;;;4.63;2.30;;;;;;;;;;5029917;28;20258;-48
2021/11/05 12:42:04;;;;;;;4.20;2.22;;;;;;;;;;5035651;28;20191;-48
2021/11/05 12:44:53;;;;;;;4.72;2.70;;;;;;;;;;5031926;28;20172;-48
2021/11/05 12:47:37;;;;;;;4.35;2.38;;;;;;;;;;5031953;28;20195;-47
2021/11/05 12:50:04;;;;;;;5.10;2.50;;;;;;;;;;5035489;28;20211;-47
2021/11/05 12:52:30;;;;;;;3.92;2.45;;;;;;;;;;5035684;28;20180;-47
2021/11/05 12:54:59;;;;;;;5.43;2.30;;;;;;;;;;5031062;28;20192;-47
2021/11/05 12:57:26;;;;;;;5.13;2.30;;;;;;;;;;5034413;28;20176;-47
2021/11/05 12:59:52;;;;;;;5.13;2.72;;;;;;;;;;5025268;28;20571;-47
2021/11/05 13:02:20;;;;;;;2.85;2.38;;;;;;;;;;5032964;28;20632;-48
2021/11/05 13:04:50;;;;;;;3.63;2.10;;;;;;;;;;5029874;28;20466;-47
2021/11/05 13:07:16;;;;;;;4.03;2.13;;;;;;;;;;5034915;28;20207;-47
2021/11/05 13:09:44;;;;;;;5.55;2.65;;;;;;;;;;5026742;28;20216;-47
2021/11/05 13:12:14;;;;;;;3.17;2.08;;;;;;;;;;5026383;28;20451;-47
2021/11/05 13:14:42;;;;;;;3.05;2.10;;;;;;;;;;5032165;28;20626;-47
2021/11/05 13:17:27;;;;;;;3.72;2.10;;;;;;;;;;5018835;28;20189;-48
2021/11/05 13:20:13;;;;;;;3.63;2.13;;;;;;;;;;5016574;28;20256;-47
2021/11/05 13:22:40;;;;;;;2.75;1.83;;;;;;;;;;5030949;28;20180;-47
2021/11/05 13:25:13;;;;;;;4.00;1.92;;;;;;;;;;5031462;28;20198;-48
2021/11/05 13:27:39;;;;;;;2.92;2.15;;;;;;;;;;5033569;28;20242;-47
2021/11/05 13:30:06;;;;;;;3.67;2.05;;;;;;;;;;5033556;28;20286;-48
2021/11/05 13:32:32;;;;;;;2.90;1.95;;;;;;;;;;5019772;28;20230;-48
2021/11/05 13:34:59;;;;;;;4.30;2.08;;;;;;;;;;5031383;28;20541;-48
2021/11/05 13:37:26;;;;;;;4.03;2.10;;;;;;;;;;5018735;28;20186;-48
2021/11/05 13:39:52;;;;;;;3.38;1.80;;;;;;;;;;5023577;28;20206;-48
2021/11/05 13:42:21;;;;;;;2.35;1.73;;;;;;;;;;5034789;28;20419;-48
2021/11/05 13:45:00;;;;;;;4.78;2.38;;;;;;;;;;5030249;28;20221;-47
2021/11/05 13:47:26;;;;;;;3.33;2.22;;;;;;;;;;5031463;28;20203;-48
2021/11/05 13:50:21;;;;;;;3.42;1.83;;;;;;;;;;5034570;28;20233;-47
2021/11/05 13:52:55;;;;;;;2.78;2.17;;;;;;;;;;5033083;28;20267;-47
2021/11/05 13:55:29;;;;;;;5.05;2.20;;;;;;;;;;5030839;28;20512;-47
2021/11/05 13:57:55;;;;;;;2.28;1.80;;;;;;;;;;5034680;28;20196;-47
2021/11/05 14:00:22;;;;;;;3.42;2.10;;;;;;;;;;5019785;28;20602;-47
2021/11/05 14:02:54;;;;;;;3.75;2.08;;;;;;;;;;5014508;28;20193;-47
2021/11/05 14:05:20;;;;;;;2.10;1.77;;;;;;;;;;5025199;28;20570;-47
2021/11/05 14:08:05;;;;;;;2.92;1.70;;;;;;;;;;5032836;28;20229;-48
2021/11/05 14:10:32;;;;;;;2.90;1.80;;;;;;;;;;5021516;28;20185;-47
2021/11/05 14:12:59;;;;;;;3.20;1.75;;;;;;;;;;5014193;28;20556;-47
2021/11/05 14:15:30;;;;;;;2.38;1.67;;;;;;;;;;5025329;28;20179;-47
2021/11/05 14:17:57;;;;;;;2.42;1.75;;;;;;;;;;5020336;28;20183;-47
2021/11/05 14:20:32;;;;;;;2.17;1.60;;;;;;;;;;5034527;28;20281;-47
2021/11/05 14:22:58;;;;;;;2.10;1.55;;;;;;;;;;5014102;28;20172;-47
2021/11/05 14:25:26;;;;;;;3.75;1.88;;;;;;;;;;5027527;28;20187;-48
2021/11/05 14:27:52;;;;;;;2.53;1.73;;;;;;;;;;5018779;28;20296;-48
2021/11/05 14:30:23;;;;;;;1.88;1.42;;;;;;;;;;5028953;28;20199;-47
2021/11/05 14:32:52;;;;;;;3.72;1.50;;;;;;;;;;5037405;28;20176;-47
2021/11/05 14:35:21;;;;;;;2.22;1.50;;;;;;;;;;5036525;28;20239;-48
2021/11/05 14:37:53;;;;;;;2.90;1.75;;;;;;;;;;5053415;28;20187;-47
2021/11/05 14:40:22;;;;;;;4.07;1.33;;;;;;;;;;5038167;28;20215;-47